sensor_id;sensor_type;location;lat;lon;timestamp;P1;durP1;ratioP1;P2;durP2;ratioP2
28862;SDS011;15994;51.796;13.006;2022-11-15T00:00:57;59.22;;;36.97;;
28862;SDS011;15994;51.796;13.006;2022-11-15T00:03:24;58.78;;;37.90;;
28862;SDS011;15994;51.796;13.006;2022-11-15T00:05:52;61.65;;;36.50;;
28862;SDS011;15994;51.796;13.006;2022-11-15T00:08:19;64.70;;;37.58;;
28862;SDS011;15994;51.796;13.006;2022-11-15T00:10:53;60.10;;;37.08;;
28862;SDS011;15994;51.796;13.006;2022-11-15T00:13:21;61.15;;;36.80;;
28862;SDS011;15994;51.796;13.006;2022-11-15T00:15:48;63.42;;;37.78;;
28862;SDS011;15994;51.796;13.006;2022-11-15T00:18:15;62.17;;;38.30;;
28862;SDS011;15994;51.796;13.006;2022-11-15T00:20:42;63.60;;;37.47;;
28862;SDS011;15994;51.796;13.006;2022-11-15T00:23:09;62.75;;;38.03;;
28862;SDS011;15994;51.796;13.006;2022-11-15T00:25:35;64.63;;;39.03;;
28862;SDS011;15994;51.796;13.006;2022-11-15T00:28:02;64.05;;;38.90;;
28862;SDS011;15994;51.796;13.006;2022-11-15T00:30:29;65.95;;;39.55;;
28862;SDS011;15994;51.796;13.006;2022-11-15T00:32:56;65.43;;;39.53;;
28862;SDS011;15994;51.796;13.006;2022-11-15T00:35:23;65.03;;;40.28;;
28862;SDS011;15994;51.796;13.006;2022-11-15T00:37:49;65.82;;;39.97;;
28862;SDS011;15994;51.796;13.006;2022-11-15T00:40:18;65.97;;;38.97;;
28862;SDS011;15994;51.796;13.006;2022-11-15T00:42:45;61.30;;;37.75;;
28862;SDS011;15994;51.796;13.006;2022-11-15T00:45:11;67.55;;;40.42;;
28862;SDS011;15994;51.796;13.006;2022-11-15T00:47:38;67.22;;;38.70;;
28862;SDS011;15994;51.796;13.006;2022-11-15T00:50:05;63.80;;;38.88;;
28862;SDS011;15994;51.796;13.006;2022-11-15T00:52:31;63.95;;;39.78;;
28862;SDS011;15994;51.796;13.006;2022-11-15T00:54:58;63.80;;;39.47;;
28862;SDS011;15994;51.796;13.006;2022-11-15T00:57:25;67.28;;;39.22;;
28862;SDS011;15994;51.796;13.006;2022-11-15T00:59:51;70.40;;;40.03;;
28862;SDS011;15994;51.796;13.006;2022-11-15T01:02:18;65.78;;;39.40;;
28862;SDS011;15994;51.796;13.006;2022-11-15T01:04:44;66.20;;;39.85;;
28862;SDS011;15994;51.796;13.006;2022-11-15T01:07:11;65.43;;;39.50;;
28862;SDS011;15994;51.796;13.006;2022-11-15T01:09:38;64.80;;;39.03;;
28862;SDS011;15994;51.796;13.006;2022-11-15T01:12:04;66.47;;;40.05;;
28862;SDS011;15994;51.796;13.006;2022-11-15T01:14:31;66.93;;;40.72;;
28862;SDS011;15994;51.796;13.006;2022-11-15T01:16:58;71.32;;;41.17;;
28862;SDS011;15994;51.796;13.006;2022-11-15T01:19:24;70.05;;;40.05;;
28862;SDS011;15994;51.796;13.006;2022-11-15T01:21:51;67.95;;;40.97;;
28862;SDS011;15994;51.796;13.006;2022-11-15T01:24:18;71.20;;;41.38;;
28862;SDS011;15994;51.796;13.006;2022-11-15T01:26:44;67.53;;;40.95;;
28862;SDS011;15994;51.796;13.006;2022-11-15T01:29:11;74.18;;;41.50;;
28862;SDS011;15994;51.796;13.006;2022-11-15T01:31:37;68.47;;;40.78;;
28862;SDS011;15994;51.796;13.006;2022-11-15T01:34:04;75.57;;;41.40;;
28862;SDS011;15994;51.796;13.006;2022-11-15T01:36:30;66.13;;;39.78;;
28862;SDS011;15994;51.796;13.006;2022-11-15T01:38:57;67.38;;;39.45;;
28862;SDS011;15994;51.796;13.006;2022-11-15T01:41:26;65.93;;;39.53;;
28862;SDS011;15994;51.796;13.006;2022-11-15T01:43:56;64.03;;;38.22;;
28862;SDS011;15994;51.796;13.006;2022-11-15T01:46:44;62.25;;;36.58;;
28862;SDS011;15994;51.796;13.006;2022-11-15T01:49:18;66.88;;;38.83;;
28862;SDS011;15994;51.796;13.006;2022-11-15T01:51:46;69.43;;;41.95;;
28862;SDS011;15994;51.796;13.006;2022-11-15T01:54:14;65.20;;;38.05;;
28862;SDS011;15994;51.796;13.006;2022-11-15T01:56:44;66.28;;;39.03;;
28862;SDS011;15994;51.796;13.006;2022-11-15T01:59:23;68.20;;;38.97;;
28862;SDS011;15994;51.796;13.006;2022-11-15T02:01:50;72.50;;;41.50;;
28862;SDS011;15994;51.796;13.006;2022-11-15T02:04:22;64.72;;;37.67;;
28862;SDS011;15994;51.796;13.006;2022-11-15T02:06:58;70.65;;;39.83;;
28862;SDS011;15994;51.796;13.006;2022-11-15T02:09:25;64.78;;;38.35;;
28862;SDS011;15994;51.796;13.006;2022-11-15T02:11:52;66.25;;;37.47;;
28862;SDS011;15994;51.796;13.006;2022-11-15T02:14:20;61.90;;;38.20;;
28862;SDS011;15994;51.796;13.006;2022-11-15T02:16:54;68.53;;;39.78;;
28862;SDS011;15994;51.796;13.006;2022-11-15T02:29:55;68.45;;;39.42;;
28862;SDS011;15994;51.796;13.006;2022-11-15T02:38:27;64.28;;;37.00;;
28862;SDS011;15994;51.796;13.006;2022-11-15T02:41:40;70.17;;;39.67;;
28862;SDS011;15994;51.796;13.006;2022-11-15T02:44:11;69.75;;;39.63;;
28862;SDS011;15994;51.796;13.006;2022-11-15T02:46:44;69.32;;;39.67;;
28862;SDS011;15994;51.796;13.006;2022-11-15T02:49:32;67.07;;;39.47;;
28862;SDS011;15994;51.796;13.006;2022-11-15T02:52:00;67.68;;;39.45;;
28862;SDS011;15994;51.796;13.006;2022-11-15T02:54:28;67.88;;;39.17;;
28862;SDS011;15994;51.796;13.006;2022-11-15T02:57:07;66.05;;;38.47;;
28862;SDS011;15994;51.796;13.006;2022-11-15T03:04:57;65.10;;;38.60;;
28862;SDS011;15994;51.796;13.006;2022-11-15T03:07:41;69.75;;;39.67;;
28862;SDS011;15994;51.796;13.006;2022-11-15T03:13:17;71.07;;;39.53;;
28862;SDS011;15994;51.796;13.006;2022-11-15T03:16:05;68.10;;;38.50;;
28862;SDS011;15994;51.796;13.006;2022-11-15T03:18:55;64.75;;;36.72;;
28862;SDS011;15994;51.796;13.006;2022-11-15T03:21:26;62.65;;;36.20;;
28862;SDS011;15994;51.796;13.006;2022-11-15T03:23:55;60.38;;;35.17;;
28862;SDS011;15994;51.796;13.006;2022-11-15T03:26:27;63.22;;;36.35;;
28862;SDS011;15994;51.796;13.006;2022-11-15T03:28:57;62.67;;;36.42;;
28862;SDS011;15994;51.796;13.006;2022-11-15T03:31:30;60.78;;;36.00;;
28862;SDS011;15994;51.796;13.006;2022-11-15T03:39:16;57.92;;;34.35;;
28862;SDS011;15994;51.796;13.006;2022-11-15T03:44:26;67.63;;;37.72;;
28862;SDS011;15994;51.796;13.006;2022-11-15T03:47:31;64.10;;;36.10;;
28862;SDS011;15994;51.796;13.006;2022-11-15T03:50:10;63.38;;;37.30;;
28862;SDS011;15994;51.796;13.006;2022-11-15T03:52:40;60.28;;;35.13;;
28862;SDS011;15994;51.796;13.006;2022-11-15T03:55:09;66.90;;;38.03;;
28862;SDS011;15994;51.796;13.006;2022-11-15T03:57:38;64.10;;;37.53;;
28862;SDS011;15994;51.796;13.006;2022-11-15T04:00:05;63.50;;;36.78;;
28862;SDS011;15994;51.796;13.006;2022-11-15T04:02:33;63.35;;;37.00;;
28862;SDS011;15994;51.796;13.006;2022-11-15T04:04:59;61.13;;;36.75;;
28862;SDS011;15994;51.796;13.006;2022-11-15T04:07:26;65.72;;;38.30;;
28862;SDS011;15994;51.796;13.006;2022-11-15T04:09:53;65.60;;;37.70;;
28862;SDS011;15994;51.796;13.006;2022-11-15T04:12:32;59.47;;;34.28;;
28862;SDS011;15994;51.796;13.006;2022-11-15T04:15:01;65.18;;;37.25;;
28862;SDS011;15994;51.796;13.006;2022-11-15T04:17:56;67.30;;;36.67;;
28862;SDS011;15994;51.796;13.006;2022-11-15T04:20:24;65.35;;;36.70;;
28862;SDS011;15994;51.796;13.006;2022-11-15T04:23:19;65.60;;;37.80;;
28862;SDS011;15994;51.796;13.006;2022-11-15T04:26:06;51.03;;;28.63;;
28862;SDS011;15994;51.796;13.006;2022-11-15T04:28:51;64.13;;;37.25;;
28862;SDS011;15994;51.796;13.006;2022-11-15T04:31:35;63.45;;;36.90;;
28862;SDS011;15994;51.796;13.006;2022-11-15T04:34:02;64.65;;;37.55;;
28862;SDS011;15994;51.796;13.006;2022-11-15T04:36:28;66.25;;;37.88;;
28862;SDS011;15994;51.796;13.006;2022-11-15T04:39:12;64.50;;;37.35;;
28862;SDS011;15994;51.796;13.006;2022-11-15T04:41:39;67.13;;;37.55;;
28862;SDS011;15994;51.796;13.006;2022-11-15T04:44:06;69.95;;;40.63;;
28862;SDS011;15994;51.796;13.006;2022-11-15T04:46:32;76.60;;;42.00;;
28862;SDS011;15994;51.796;13.006;2022-11-15T04:48:59;74.60;;;41.83;;
28862;SDS011;15994;51.796;13.006;2022-11-15T04:51:26;76.32;;;40.25;;
28862;SDS011;15994;51.796;13.006;2022-11-15T04:53:53;69.45;;;38.85;;
28862;SDS011;15994;51.796;13.006;2022-11-15T04:56:19;70.72;;;39.92;;
28862;SDS011;15994;51.796;13.006;2022-11-15T04:58:48;72.82;;;39.90;;
28862;SDS011;15994;51.796;13.006;2022-11-15T05:01:15;69.45;;;39.05;;
28862;SDS011;15994;51.796;13.006;2022-11-15T05:03:42;71.78;;;38.17;;
28862;SDS011;15994;51.796;13.006;2022-11-15T05:06:26;71.75;;;37.20;;
28862;SDS011;15994;51.796;13.006;2022-11-15T05:08:53;70.55;;;37.17;;
28862;SDS011;15994;51.796;13.006;2022-11-15T05:11:20;69.65;;;35.80;;
28862;SDS011;15994;51.796;13.006;2022-11-15T05:13:47;69.63;;;37.03;;
28862;SDS011;15994;51.796;13.006;2022-11-15T05:16:14;68.65;;;36.63;;
28862;SDS011;15994;51.796;13.006;2022-11-15T05:18:40;67.10;;;37.25;;
28862;SDS011;15994;51.796;13.006;2022-11-15T05:21:08;60.63;;;35.33;;
28862;SDS011;15994;51.796;13.006;2022-11-15T05:23:40;61.13;;;33.53;;
28862;SDS011;15994;51.796;13.006;2022-11-15T05:26:07;58.63;;;33.35;;
28862;SDS011;15994;51.796;13.006;2022-11-15T05:28:34;53.45;;;32.05;;
28862;SDS011;15994;51.796;13.006;2022-11-15T05:31:02;62.55;;;35.13;;
28862;SDS011;15994;51.796;13.006;2022-11-15T05:33:33;58.88;;;33.30;;
28862;SDS011;15994;51.796;13.006;2022-11-15T05:36:05;63.08;;;36.20;;
28862;SDS011;15994;51.796;13.006;2022-11-15T05:38:38;62.55;;;35.53;;
28862;SDS011;15994;51.796;13.006;2022-11-15T05:41:05;57.42;;;33.95;;
28862;SDS011;15994;51.796;13.006;2022-11-15T05:43:32;58.35;;;33.78;;
28862;SDS011;15994;51.796;13.006;2022-11-15T05:46:02;55.33;;;32.92;;
28862;SDS011;15994;51.796;13.006;2022-11-15T05:48:30;53.05;;;33.15;;
28862;SDS011;15994;51.796;13.006;2022-11-15T05:50:58;55.85;;;32.53;;
28862;SDS011;15994;51.796;13.006;2022-11-15T05:53:25;57.97;;;32.85;;
28862;SDS011;15994;51.796;13.006;2022-11-15T05:55:52;59.80;;;33.25;;
28862;SDS011;15994;51.796;13.006;2022-11-15T05:58:19;63.22;;;35.60;;
28862;SDS011;15994;51.796;13.006;2022-11-15T06:00:46;61.83;;;34.65;;
28862;SDS011;15994;51.796;13.006;2022-11-15T06:03:13;64.68;;;36.13;;
28862;SDS011;15994;51.796;13.006;2022-11-15T06:05:40;62.92;;;35.63;;
28862;SDS011;15994;51.796;13.006;2022-11-15T06:08:06;69.38;;;35.97;;
28862;SDS011;15994;51.796;13.006;2022-11-15T06:10:33;63.70;;;36.35;;
28862;SDS011;15994;51.796;13.006;2022-11-15T06:13:00;65.22;;;34.65;;
28862;SDS011;15994;51.796;13.006;2022-11-15T06:15:29;62.75;;;35.55;;
28862;SDS011;15994;51.796;13.006;2022-11-15T06:17:56;60.83;;;34.10;;
28862;SDS011;15994;51.796;13.006;2022-11-15T06:20:24;59.35;;;33.80;;
28862;SDS011;15994;51.796;13.006;2022-11-15T06:22:55;62.55;;;33.70;;
28862;SDS011;15994;51.796;13.006;2022-11-15T06:25:26;55.58;;;32.00;;
28862;SDS011;15994;51.796;13.006;2022-11-15T06:27:54;60.67;;;33.20;;
28862;SDS011;15994;51.796;13.006;2022-11-15T06:30:22;57.17;;;31.77;;
28862;SDS011;15994;51.796;13.006;2022-11-15T06:32:49;56.70;;;32.60;;
28862;SDS011;15994;51.796;13.006;2022-11-15T06:35:16;59.50;;;33.58;;
28862;SDS011;15994;51.796;13.006;2022-11-15T06:37:43;60.67;;;34.92;;
28862;SDS011;15994;51.796;13.006;2022-11-15T06:40:10;60.25;;;34.65;;
28862;SDS011;15994;51.796;13.006;2022-11-15T06:42:37;62.80;;;34.42;;
28862;SDS011;15994;51.796;13.006;2022-11-15T06:45:03;63.67;;;35.47;;
28862;SDS011;15994;51.796;13.006;2022-11-15T06:47:30;59.70;;;34.83;;
28862;SDS011;15994;51.796;13.006;2022-11-15T06:49:57;57.58;;;33.42;;
28862;SDS011;15994;51.796;13.006;2022-11-15T06:52:24;60.55;;;34.15;;
28862;SDS011;15994;51.796;13.006;2022-11-15T06:54:50;60.28;;;34.67;;
28862;SDS011;15994;51.796;13.006;2022-11-15T06:57:17;57.95;;;33.17;;
28862;SDS011;15994;51.796;13.006;2022-11-15T06:59:43;64.97;;;36.80;;
28862;SDS011;15994;51.796;13.006;2022-11-15T07:02:11;60.17;;;35.20;;
28862;SDS011;15994;51.796;13.006;2022-11-15T07:04:39;58.67;;;34.22;;
28862;SDS011;15994;51.796;13.006;2022-11-15T07:07:05;60.60;;;34.10;;
28862;SDS011;15994;51.796;13.006;2022-11-15T07:09:32;59.15;;;33.90;;
28862;SDS011;15994;51.796;13.006;2022-11-15T07:11:59;59.42;;;35.20;;
28862;SDS011;15994;51.796;13.006;2022-11-15T07:14:25;66.07;;;36.03;;
28862;SDS011;15994;51.796;13.006;2022-11-15T07:16:52;63.33;;;36.47;;
28862;SDS011;15994;51.796;13.006;2022-11-15T07:19:18;58.88;;;35.60;;
28862;SDS011;15994;51.796;13.006;2022-11-15T07:21:45;65.43;;;36.97;;
28862;SDS011;15994;51.796;13.006;2022-11-15T07:24:12;60.30;;;34.28;;
28862;SDS011;15994;51.796;13.006;2022-11-15T07:26:39;63.38;;;35.85;;
28862;SDS011;15994;51.796;13.006;2022-11-15T07:29:05;61.80;;;35.58;;
28862;SDS011;15994;51.796;13.006;2022-11-15T07:31:32;61.42;;;36.10;;
28862;SDS011;15994;51.796;13.006;2022-11-15T07:33:59;61.65;;;35.85;;
28862;SDS011;15994;51.796;13.006;2022-11-15T07:36:25;62.95;;;36.30;;
28862;SDS011;15994;51.796;13.006;2022-11-15T07:38:52;59.47;;;35.58;;
28862;SDS011;15994;51.796;13.006;2022-11-15T07:41:18;61.13;;;38.00;;
28862;SDS011;15994;51.796;13.006;2022-11-15T07:43:45;65.03;;;37.22;;
28862;SDS011;15994;51.796;13.006;2022-11-15T07:46:11;65.35;;;37.85;;
28862;SDS011;15994;51.796;13.006;2022-11-15T07:48:38;66.68;;;36.80;;
28862;SDS011;15994;51.796;13.006;2022-11-15T07:51:05;69.55;;;38.28;;
28862;SDS011;15994;51.796;13.006;2022-11-15T07:53:33;65.50;;;39.28;;
28862;SDS011;15994;51.796;13.006;2022-11-15T07:55:59;67.50;;;39.45;;
28862;SDS011;15994;51.796;13.006;2022-11-15T07:58:26;66.80;;;39.30;;
28862;SDS011;15994;51.796;13.006;2022-11-15T08:00:52;60.95;;;36.92;;
28862;SDS011;15994;51.796;13.006;2022-11-15T08:03:19;59.47;;;36.58;;
28862;SDS011;15994;51.796;13.006;2022-11-15T08:05:49;64.82;;;37.10;;
28862;SDS011;15994;51.796;13.006;2022-11-15T08:08:17;62.92;;;37.47;;
28862;SDS011;15994;51.796;13.006;2022-11-15T08:10:44;61.10;;;36.20;;
28862;SDS011;15994;51.796;13.006;2022-11-15T08:13:11;61.13;;;36.63;;
28862;SDS011;15994;51.796;13.006;2022-11-15T08:15:39;61.83;;;37.20;;
28862;SDS011;15994;51.796;13.006;2022-11-15T08:18:08;60.58;;;36.17;;
28862;SDS011;15994;51.796;13.006;2022-11-15T08:20:37;61.15;;;37.90;;
28862;SDS011;15994;51.796;13.006;2022-11-15T08:23:04;59.60;;;36.33;;
28862;SDS011;15994;51.796;13.006;2022-11-15T08:25:32;59.70;;;35.72;;
28862;SDS011;15994;51.796;13.006;2022-11-15T08:28:01;60.40;;;36.28;;
28862;SDS011;15994;51.796;13.006;2022-11-15T08:30:30;62.88;;;36.70;;
28862;SDS011;15994;51.796;13.006;2022-11-15T08:33:02;58.58;;;35.10;;
28862;SDS011;15994;51.796;13.006;2022-11-15T08:35:29;54.05;;;34.60;;
28862;SDS011;15994;51.796;13.006;2022-11-15T08:37:55;57.40;;;33.55;;
28862;SDS011;15994;51.796;13.006;2022-11-15T08:40:22;56.17;;;32.78;;
28862;SDS011;15994;51.796;13.006;2022-11-15T08:42:49;50.80;;;32.05;;
28862;SDS011;15994;51.796;13.006;2022-11-15T08:45:15;54.88;;;32.70;;
28862;SDS011;15994;51.796;13.006;2022-11-15T08:47:42;53.45;;;32.75;;
28862;SDS011;15994;51.796;13.006;2022-11-15T08:50:09;51.33;;;29.98;;
28862;SDS011;15994;51.796;13.006;2022-11-15T08:52:35;51.70;;;30.33;;
28862;SDS011;15994;51.796;13.006;2022-11-15T08:55:02;46.92;;;30.63;;
28862;SDS011;15994;51.796;13.006;2022-11-15T08:57:29;51.30;;;31.73;;
28862;SDS011;15994;51.796;13.006;2022-11-15T08:59:56;45.67;;;28.80;;
28862;SDS011;15994;51.796;13.006;2022-11-15T09:02:23;46.17;;;28.85;;
28862;SDS011;15994;51.796;13.006;2022-11-15T09:04:49;44.75;;;27.48;;
28862;SDS011;15994;51.796;13.006;2022-11-15T09:07:16;41.67;;;26.30;;
28862;SDS011;15994;51.796;13.006;2022-11-15T09:09:43;40.85;;;25.90;;
28862;SDS011;15994;51.796;13.006;2022-11-15T09:12:10;37.50;;;24.63;;
28862;SDS011;15994;51.796;13.006;2022-11-15T09:14:36;40.42;;;23.85;;
28862;SDS011;15994;51.796;13.006;2022-11-15T09:17:03;36.72;;;24.23;;
28862;SDS011;15994;51.796;13.006;2022-11-15T09:19:33;40.22;;;24.75;;
28862;SDS011;15994;51.796;13.006;2022-11-15T09:22:00;34.78;;;22.55;;
28862;SDS011;15994;51.796;13.006;2022-11-15T09:24:27;41.08;;;23.38;;
28862;SDS011;15994;51.796;13.006;2022-11-15T09:26:53;33.83;;;21.52;;
28862;SDS011;15994;51.796;13.006;2022-11-15T09:29:20;32.78;;;20.13;;
28862;SDS011;15994;51.796;13.006;2022-11-15T09:31:46;34.28;;;22.45;;
28862;SDS011;15994;51.796;13.006;2022-11-15T09:34:13;31.30;;;21.42;;
28862;SDS011;15994;51.796;13.006;2022-11-15T09:36:40;29.45;;;19.35;;
28862;SDS011;15994;51.796;13.006;2022-11-15T09:39:06;27.20;;;18.42;;
28862;SDS011;15994;51.796;13.006;2022-11-15T09:41:39;29.30;;;18.63;;
28862;SDS011;15994;51.796;13.006;2022-11-15T09:44:27;26.55;;;18.00;;
28862;SDS011;15994;51.796;13.006;2022-11-15T09:49:59;27.02;;;17.60;;
28862;SDS011;15994;51.796;13.006;2022-11-15T09:52:27;22.45;;;15.88;;
28862;SDS011;15994;51.796;13.006;2022-11-15T09:54:54;20.98;;;15.52;;
28862;SDS011;15994;51.796;13.006;2022-11-15T10:05:44;17.88;;;12.98;;
28862;SDS011;15994;51.796;13.006;2022-11-15T10:08:25;18.20;;;12.57;;
28862;SDS011;15994;51.796;13.006;2022-11-15T10:11:05;18.67;;;12.48;;
28862;SDS011;15994;51.796;13.006;2022-11-15T10:13:34;18.85;;;12.73;;
28862;SDS011;15994;51.796;13.006;2022-11-15T10:22:00;16.27;;;10.60;;
28862;SDS011;15994;51.796;13.006;2022-11-15T10:24:32;17.10;;;11.35;;
28862;SDS011;15994;51.796;13.006;2022-11-15T10:27:04;15.57;;;11.75;;
28862;SDS011;15994;51.796;13.006;2022-11-15T10:29:48;16.70;;;12.20;;
28862;SDS011;15994;51.796;13.006;2022-11-15T10:32:19;15.77;;;11.25;;
28862;SDS011;15994;51.796;13.006;2022-11-15T10:34:47;16.08;;;11.00;;
28862;SDS011;15994;51.796;13.006;2022-11-15T10:37:26;13.20;;;9.77;;
28862;SDS011;15994;51.796;13.006;2022-11-15T10:40:14;13.55;;;9.55;;
28862;SDS011;15994;51.796;13.006;2022-11-15T10:42:43;13.60;;;9.18;;
28862;SDS011;15994;51.796;13.006;2022-11-15T10:45:30;11.38;;;8.40;;
28862;SDS011;15994;51.796;13.006;2022-11-15T10:48:18;9.65;;;6.50;;
28862;SDS011;15994;51.796;13.006;2022-11-15T10:50:47;10.23;;;6.78;;
28862;SDS011;15994;51.796;13.006;2022-11-15T10:56:00;10.70;;;6.43;;
28862;SDS011;15994;51.796;13.006;2022-11-15T10:58:35;7.95;;;5.68;;
28862;SDS011;15994;51.796;13.006;2022-11-15T11:01:10;9.95;;;5.97;;
28862;SDS011;15994;51.796;13.006;2022-11-15T11:03:45;8.25;;;5.68;;
28862;SDS011;15994;51.796;13.006;2022-11-15T11:06:26;9.88;;;5.78;;
28862;SDS011;15994;51.796;13.006;2022-11-15T11:08:57;8.20;;;5.88;;
28862;SDS011;15994;51.796;13.006;2022-11-15T11:11:43;7.93;;;5.70;;
28862;SDS011;15994;51.796;13.006;2022-11-15T11:14:45;7.43;;;5.30;;
28862;SDS011;15994;51.796;13.006;2022-11-15T11:17:23;14.73;;;6.07;;
28862;SDS011;15994;51.796;13.006;2022-11-15T11:25:28;14.85;;;7.25;;
28862;SDS011;15994;51.796;13.006;2022-11-15T11:42:08;7.80;;;4.93;;
28862;SDS011;15994;51.796;13.006;2022-11-15T11:47:32;6.35;;;3.95;;
28862;SDS011;15994;51.796;13.006;2022-11-15T11:50:10;7.60;;;4.95;;
28862;SDS011;15994;51.796;13.006;2022-11-15T11:55:23;5.85;;;4.40;;
28862;SDS011;15994;51.796;13.006;2022-11-15T12:00:33;6.70;;;5.28;;
28862;SDS011;15994;51.796;13.006;2022-11-15T12:05:43;7.35;;;5.53;;
28862;SDS011;15994;51.796;13.006;2022-11-15T12:10:52;9.80;;;5.35;;
28862;SDS011;15994;51.796;13.006;2022-11-15T12:13:25;9.48;;;5.00;;
28862;SDS011;15994;51.796;13.006;2022-11-15T12:18:34;5.03;;;4.20;;
28862;SDS011;15994;51.796;13.006;2022-11-15T12:21:03;8.98;;;4.78;;
28862;SDS011;15994;51.796;13.006;2022-11-15T12:23:38;6.32;;;4.57;;
28862;SDS011;15994;51.796;13.006;2022-11-15T12:26:22;8.45;;;5.35;;
28862;SDS011;15994;51.796;13.006;2022-11-15T12:29:03;7.47;;;5.20;;
28862;SDS011;15994;51.796;13.006;2022-11-15T12:31:42;10.15;;;5.57;;
28862;SDS011;15994;51.796;13.006;2022-11-15T12:36:48;10.43;;;5.10;;
28862;SDS011;15994;51.796;13.006;2022-11-15T12:39:16;9.00;;;5.38;;
28862;SDS011;15994;51.796;13.006;2022-11-15T12:41:44;8.27;;;5.25;;
28862;SDS011;15994;51.796;13.006;2022-11-15T13:02:24;8.27;;;5.60;;
28862;SDS011;15994;51.796;13.006;2022-11-15T13:10:29;9.63;;;5.78;;
28862;SDS011;15994;51.796;13.006;2022-11-15T13:12:57;6.88;;;5.18;;
28862;SDS011;15994;51.796;13.006;2022-11-15T13:15:35;11.15;;;5.97;;
28862;SDS011;15994;51.796;13.006;2022-11-15T13:20:53;9.38;;;5.00;;
28862;SDS011;15994;51.796;13.006;2022-11-15T13:23:20;8.20;;;4.93;;
28862;SDS011;15994;51.796;13.006;2022-11-15T13:26:01;8.15;;;5.22;;
28862;SDS011;15994;51.796;13.006;2022-11-15T13:31:27;7.65;;;5.18;;
28862;SDS011;15994;51.796;13.006;2022-11-15T13:33:58;9.93;;;5.32;;
28862;SDS011;15994;51.796;13.006;2022-11-15T13:36:32;7.53;;;4.93;;
28862;SDS011;15994;51.796;13.006;2022-11-15T13:41:32;10.13;;;6.57;;
28862;SDS011;15994;51.796;13.006;2022-11-15T13:44:01;10.13;;;7.20;;
28862;SDS011;15994;51.796;13.006;2022-11-15T13:46:33;12.30;;;7.53;;
28862;SDS011;15994;51.796;13.006;2022-11-15T13:54:13;10.70;;;7.80;;
28862;SDS011;15994;51.796;13.006;2022-11-15T14:02:18;11.00;;;7.90;;
28862;SDS011;15994;51.796;13.006;2022-11-15T14:04:51;13.50;;;7.70;;
28862;SDS011;15994;51.796;13.006;2022-11-15T14:07:28;12.68;;;8.70;;
28862;SDS011;15994;51.796;13.006;2022-11-15T14:09:55;15.25;;;10.07;;
28862;SDS011;15994;51.796;13.006;2022-11-15T14:12:26;21.52;;;13.60;;
28862;SDS011;15994;51.796;13.006;2022-11-15T14:17:54;21.98;;;13.40;;
28862;SDS011;15994;51.796;13.006;2022-11-15T14:20:28;15.95;;;10.48;;
28862;SDS011;15994;51.796;13.006;2022-11-15T14:22:59;14.65;;;9.80;;
28862;SDS011;15994;51.796;13.006;2022-11-15T14:25:34;16.85;;;11.68;;
28862;SDS011;15994;51.796;13.006;2022-11-15T14:28:34;17.88;;;11.15;;
28862;SDS011;15994;51.796;13.006;2022-11-15T14:30:56;12.77;;;9.27;;
28862;SDS011;15994;51.796;13.006;2022-11-15T14:36:01;12.30;;;9.05;;
28862;SDS011;15994;51.796;13.006;2022-11-15T14:38:31;13.02;;;9.77;;
28862;SDS011;15994;51.796;13.006;2022-11-15T14:40:59;13.98;;;10.10;;
28862;SDS011;15994;51.796;13.006;2022-11-15T14:43:26;17.05;;;9.77;;
28862;SDS011;15994;51.796;13.006;2022-11-15T14:45:52;18.95;;;10.93;;
28862;SDS011;15994;51.796;13.006;2022-11-15T14:48:21;17.67;;;11.60;;
28862;SDS011;15994;51.796;13.006;2022-11-15T14:50:48;19.33;;;12.07;;
28862;SDS011;15994;51.796;13.006;2022-11-15T14:53:15;21.10;;;12.73;;
28862;SDS011;15994;51.796;13.006;2022-11-15T14:55:43;21.48;;;13.75;;
28862;SDS011;15994;51.796;13.006;2022-11-15T14:58:10;27.70;;;16.88;;
28862;SDS011;15994;51.796;13.006;2022-11-15T15:00:37;34.22;;;19.45;;
28862;SDS011;15994;51.796;13.006;2022-11-15T15:03:05;33.63;;;19.33;;
28862;SDS011;15994;51.796;13.006;2022-11-15T15:05:36;37.08;;;22.58;;
28862;SDS011;15994;51.796;13.006;2022-11-15T15:08:07;43.45;;;24.48;;
28862;SDS011;15994;51.796;13.006;2022-11-15T15:10:36;36.30;;;21.95;;
28862;SDS011;15994;51.796;13.006;2022-11-15T15:13:20;40.80;;;25.33;;
28862;SDS011;15994;51.796;13.006;2022-11-15T15:15:49;34.47;;;24.58;;
28862;SDS011;15994;51.796;13.006;2022-11-15T15:18:17;31.65;;;21.42;;
28862;SDS011;15994;51.796;13.006;2022-11-15T15:20:44;23.05;;;16.00;;
28862;SDS011;15994;51.796;13.006;2022-11-15T15:23:17;22.08;;;15.50;;
28862;SDS011;15994;51.796;13.006;2022-11-15T15:25:46;26.17;;;17.15;;
28862;SDS011;15994;51.796;13.006;2022-11-15T15:28:13;26.27;;;16.30;;
28862;SDS011;15994;51.796;13.006;2022-11-15T15:30:40;36.22;;;25.48;;
28862;SDS011;15994;51.796;13.006;2022-11-15T15:33:07;43.67;;;27.50;;
28862;SDS011;15994;51.796;13.006;2022-11-15T15:35:34;46.78;;;30.83;;
28862;SDS011;15994;51.796;13.006;2022-11-15T15:38:01;48.58;;;33.75;;
28862;SDS011;15994;51.796;13.006;2022-11-15T15:40:29;44.47;;;29.83;;
28862;SDS011;15994;51.796;13.006;2022-11-15T15:42:57;44.10;;;28.90;;
28862;SDS011;15994;51.796;13.006;2022-11-15T15:45:24;44.95;;;30.33;;
28862;SDS011;15994;51.796;13.006;2022-11-15T15:47:51;42.28;;;28.63;;
28862;SDS011;15994;51.796;13.006;2022-11-15T15:50:28;49.47;;;31.05;;
28862;SDS011;15994;51.796;13.006;2022-11-15T15:52:56;47.70;;;31.88;;
28862;SDS011;15994;51.796;13.006;2022-11-15T15:55:25;31.27;;;21.13;;
28862;SDS011;15994;51.796;13.006;2022-11-15T15:57:52;40.10;;;25.88;;
28862;SDS011;15994;51.796;13.006;2022-11-15T16:00:19;27.75;;;19.80;;
28862;SDS011;15994;51.796;13.006;2022-11-15T16:02:48;59.17;;;41.15;;
28862;SDS011;15994;51.796;13.006;2022-11-15T16:05:15;42.88;;;29.60;;
28862;SDS011;15994;51.796;13.006;2022-11-15T16:07:42;34.25;;;21.63;;
28862;SDS011;15994;51.796;13.006;2022-11-15T16:10:17;38.58;;;24.80;;
28862;SDS011;15994;51.796;13.006;2022-11-15T16:12:46;60.03;;;41.97;;
28862;SDS011;15994;51.796;13.006;2022-11-15T16:15:13;112.00;;;86.13;;
28862;SDS011;15994;51.796;13.006;2022-11-15T16:17:42;40.80;;;26.85;;
28862;SDS011;15994;51.796;13.006;2022-11-15T16:20:24;41.03;;;24.75;;
28862;SDS011;15994;51.796;13.006;2022-11-15T16:22:53;57.25;;;39.13;;
28862;SDS011;15994;51.796;13.006;2022-11-15T16:25:19;33.72;;;24.02;;
28862;SDS011;15994;51.796;13.006;2022-11-15T16:27:46;27.48;;;18.15;;
28862;SDS011;15994;51.796;13.006;2022-11-15T16:30:14;27.83;;;17.90;;
28862;SDS011;15994;51.796;13.006;2022-11-15T16:32:42;28.23;;;18.35;;
28862;SDS011;15994;51.796;13.006;2022-11-15T16:35:11;23.40;;;16.52;;
28862;SDS011;15994;51.796;13.006;2022-11-15T16:37:39;25.88;;;16.85;;
28862;SDS011;15994;51.796;13.006;2022-11-15T16:42:43;26.15;;;17.63;;
28862;SDS011;15994;51.796;13.006;2022-11-15T16:45:11;25.00;;;17.55;;
28862;SDS011;15994;51.796;13.006;2022-11-15T16:47:38;25.17;;;18.38;;
28862;SDS011;15994;51.796;13.006;2022-11-15T16:50:05;27.17;;;19.35;;